sensor_id;sensor_type;location;lat;lon;timestamp;P1;durP1;ratioP1;P2;durP2;ratioP2
37297;SDS011;30517;51.932;4.278;2024-01-11T00:02:19;7.53;;;3.47;;
37297;SDS011;30517;51.932;4.278;2024-01-11T00:05:00;8.30;;;4.18;;
37297;SDS011;30517;51.932;4.278;2024-01-11T00:07:42;7.00;;;3.70;;
37297;SDS011;30517;51.932;4.278;2024-01-11T00:10:23;6.05;;;3.28;;
37297;SDS011;30517;51.932;4.278;2024-01-11T00:13:04;7.05;;;3.83;;
37297;SDS011;30517;51.932;4.278;2024-01-11T00:15:45;7.63;;;4.50;;
37297;SDS011;30517;51.932;4.278;2024-01-11T00:18:26;8.52;;;3.85;;
37297;SDS011;30517;51.932;4.278;2024-01-11T00:21:07;6.88;;;4.10;;
37297;SDS011;30517;51.932;4.278;2024-01-11T00:23:50;7.20;;;4.38;;
37297;SDS011;30517;51.932;4.278;2024-01-11T00:26:31;6.78;;;4.25;;
37297;SDS011;30517;51.932;4.278;2024-01-11T00:29:12;6.80;;;3.53;;
37297;SDS011;30517;51.932;4.278;2024-01-11T00:31:52;8.35;;;4.32;;
37297;SDS011;30517;51.932;4.278;2024-01-11T00:34:33;6.85;;;3.58;;
37297;SDS011;30517;51.932;4.278;2024-01-11T00:37:16;7.95;;;3.97;;
37297;SDS011;30517;51.932;4.278;2024-01-11T00:39:57;7.57;;;3.10;;
37297;SDS011;30517;51.932;4.278;2024-01-11T00:42:38;5.53;;;3.28;;
37297;SDS011;30517;51.932;4.278;2024-01-11T00:45:22;5.93;;;3.58;;
37297;SDS011;30517;51.932;4.278;2024-01-11T00:48:06;6.78;;;3.40;;
37297;SDS011;30517;51.932;4.278;2024-01-11T00:50:47;7.93;;;3.85;;
37297;SDS011;30517;51.932;4.278;2024-01-11T00:53:28;7.38;;;3.30;;
37297;SDS011;30517;51.932;4.278;2024-01-11T00:56:20;6.87;;;3.53;;
37297;SDS011;30517;51.932;4.278;2024-01-11T00:59:01;7.43;;;3.75;;
37297;SDS011;30517;51.932;4.278;2024-01-11T01:01:49;6.55;;;3.92;;
37297;SDS011;30517;51.932;4.278;2024-01-11T01:04:30;7.53;;;3.47;;
37297;SDS011;30517;51.932;4.278;2024-01-11T01:07:11;6.82;;;3.63;;
37297;SDS011;30517;51.932;4.278;2024-01-11T01:09:52;7.32;;;4.47;;
37297;SDS011;30517;51.932;4.278;2024-01-11T01:12:33;8.85;;;4.18;;
37297;SDS011;30517;51.932;4.278;2024-01-11T01:15:14;6.47;;;3.55;;
37297;SDS011;30517;51.932;4.278;2024-01-11T01:17:55;8.25;;;3.20;;
37297;SDS011;30517;51.932;4.278;2024-01-11T01:20:36;6.47;;;3.70;;
37297;SDS011;30517;51.932;4.278;2024-01-11T01:23:17;6.63;;;3.42;;
37297;SDS011;30517;51.932;4.278;2024-01-11T01:25:58;7.43;;;3.92;;
37297;SDS011;30517;51.932;4.278;2024-01-11T01:28:39;7.20;;;4.28;;
37297;SDS011;30517;51.932;4.278;2024-01-11T01:31:21;5.30;;;3.22;;
37297;SDS011;30517;51.932;4.278;2024-01-11T01:34:02;7.20;;;3.70;;
37297;SDS011;30517;51.932;4.278;2024-01-11T01:36:44;7.07;;;3.65;;
37297;SDS011;30517;51.932;4.278;2024-01-11T01:39:25;6.20;;;3.28;;
37297;SDS011;30517;51.932;4.278;2024-01-11T01:42:06;5.88;;;3.45;;
37297;SDS011;30517;51.932;4.278;2024-01-11T01:44:47;8.40;;;4.22;;
37297;SDS011;30517;51.932;4.278;2024-01-11T01:47:28;6.60;;;3.78;;
37297;SDS011;30517;51.932;4.278;2024-01-11T01:50:10;7.32;;;4.05;;
37297;SDS011;30517;51.932;4.278;2024-01-11T01:52:52;8.07;;;3.97;;
37297;SDS011;30517;51.932;4.278;2024-01-11T01:55:34;6.25;;;3.80;;
37297;SDS011;30517;51.932;4.278;2024-01-11T01:58:15;6.68;;;3.63;;
37297;SDS011;30517;51.932;4.278;2024-01-11T02:00:58;8.25;;;4.15;;
37297;SDS011;30517;51.932;4.278;2024-01-11T02:03:39;8.70;;;4.47;;
37297;SDS011;30517;51.932;4.278;2024-01-11T02:06:24;6.95;;;3.83;;
37297;SDS011;30517;51.932;4.278;2024-01-11T02:09:09;8.02;;;4.30;;
37297;SDS011;30517;51.932;4.278;2024-01-11T02:11:52;8.17;;;3.87;;
37297;SDS011;30517;51.932;4.278;2024-01-11T02:14:34;7.28;;;3.65;;
37297;SDS011;30517;51.932;4.278;2024-01-11T02:17:17;7.53;;;4.07;;
37297;SDS011;30517;51.932;4.278;2024-01-11T02:19:58;6.90;;;3.50;;
37297;SDS011;30517;51.932;4.278;2024-01-11T02:22:40;7.72;;;4.55;;
37297;SDS011;30517;51.932;4.278;2024-01-11T02:25:27;5.63;;;3.92;;
37297;SDS011;30517;51.932;4.278;2024-01-11T02:28:08;9.55;;;4.15;;
37297;SDS011;30517;51.932;4.278;2024-01-11T02:30:49;9.57;;;4.70;;
37297;SDS011;30517;51.932;4.278;2024-01-11T02:33:30;7.57;;;3.92;;
37297;SDS011;30517;51.932;4.278;2024-01-11T02:36:11;8.45;;;3.88;;
37297;SDS011;30517;51.932;4.278;2024-01-11T02:38:53;6.47;;;3.50;;
37297;SDS011;30517;51.932;4.278;2024-01-11T02:41:35;9.63;;;4.10;;
37297;SDS011;30517;51.932;4.278;2024-01-11T02:46:58;7.10;;;4.38;;
37297;SDS011;30517;51.932;4.278;2024-01-11T02:49:39;7.30;;;3.80;;
37297;SDS011;30517;51.932;4.278;2024-01-11T02:52:20;7.28;;;4.20;;
37297;SDS011;30517;51.932;4.278;2024-01-11T02:55:01;6.45;;;4.25;;
37297;SDS011;30517;51.932;4.278;2024-01-11T02:57:42;7.63;;;4.10;;
37297;SDS011;30517;51.932;4.278;2024-01-11T03:00:23;7.80;;;3.75;;
37297;SDS011;30517;51.932;4.278;2024-01-11T03:03:04;6.97;;;4.28;;
37297;SDS011;30517;51.932;4.278;2024-01-11T03:05:45;7.50;;;3.80;;
37297;SDS011;30517;51.932;4.278;2024-01-11T03:08:26;6.30;;;3.92;;
37297;SDS011;30517;51.932;4.278;2024-01-11T03:11:07;6.47;;;3.83;;
37297;SDS011;30517;51.932;4.278;2024-01-11T03:13:47;7.35;;;3.88;;
37297;SDS011;30517;51.932;4.278;2024-01-11T03:16:28;6.63;;;3.63;;
37297;SDS011;30517;51.932;4.278;2024-01-11T03:19:09;7.80;;;3.80;;
37297;SDS011;30517;51.932;4.278;2024-01-11T03:21:50;5.30;;;3.47;;
37297;SDS011;30517;51.932;4.278;2024-01-11T03:24:31;7.65;;;4.35;;
37297;SDS011;30517;51.932;4.278;2024-01-11T03:27:12;6.97;;;4.10;;
37297;SDS011;30517;51.932;4.278;2024-01-11T03:29:53;7.70;;;4.75;;
37297;SDS011;30517;51.932;4.278;2024-01-11T03:32:34;8.77;;;4.43;;
37297;SDS011;30517;51.932;4.278;2024-01-11T03:35:15;7.70;;;3.83;;
37297;SDS011;30517;51.932;4.278;2024-01-11T03:37:56;6.63;;;4.00;;
37297;SDS011;30517;51.932;4.278;2024-01-11T03:40:36;6.78;;;3.75;;
37297;SDS011;30517;51.932;4.278;2024-01-11T03:43:20;7.00;;;4.22;;
37297;SDS011;30517;51.932;4.278;2024-01-11T03:46:01;7.60;;;4.30;;
37297;SDS011;30517;51.932;4.278;2024-01-11T03:48:42;7.38;;;3.70;;
37297;SDS011;30517;51.932;4.278;2024-01-11T03:51:23;8.95;;;4.18;;
37297;SDS011;30517;51.932;4.278;2024-01-11T03:54:04;8.40;;;4.32;;
37297;SDS011;30517;51.932;4.278;2024-01-11T03:56:45;9.32;;;4.38;;
37297;SDS011;30517;51.932;4.278;2024-01-11T03:59:26;7.85;;;4.07;;
37297;SDS011;30517;51.932;4.278;2024-01-11T04:02:07;6.82;;;3.90;;
37297;SDS011;30517;51.932;4.278;2024-01-11T04:04:48;8.95;;;5.03;;
37297;SDS011;30517;51.932;4.278;2024-01-11T04:07:29;9.63;;;4.53;;
37297;SDS011;30517;51.932;4.278;2024-01-11T04:10:09;7.80;;;4.05;;
37297;SDS011;30517;51.932;4.278;2024-01-11T04:12:50;12.05;;;4.80;;
37297;SDS011;30517;51.932;4.278;2024-01-11T04:15:31;8.95;;;4.68;;
37297;SDS011;30517;51.932;4.278;2024-01-11T04:18:12;7.80;;;4.03;;
37297;SDS011;30517;51.932;4.278;2024-01-11T04:20:54;9.77;;;4.80;;
37297;SDS011;30517;51.932;4.278;2024-01-11T04:23:35;9.18;;;4.30;;
37297;SDS011;30517;51.932;4.278;2024-01-11T04:26:16;7.55;;;4.07;;
37297;SDS011;30517;51.932;4.278;2024-01-11T04:28:59;7.18;;;4.10;;
37297;SDS011;30517;51.932;4.278;2024-01-11T04:31:40;6.13;;;3.50;;
37297;SDS011;30517;51.932;4.278;2024-01-11T04:34:21;9.32;;;4.40;;
37297;SDS011;30517;51.932;4.278;2024-01-11T04:37:02;7.90;;;4.78;;
37297;SDS011;30517;51.932;4.278;2024-01-11T04:39:43;7.63;;;4.07;;
37297;SDS011;30517;51.932;4.278;2024-01-11T04:42:24;6.93;;;4.18;;
37297;SDS011;30517;51.932;4.278;2024-01-11T04:45:05;8.25;;;4.55;;
37297;SDS011;30517;51.932;4.278;2024-01-11T04:47:46;8.55;;;5.07;;
37297;SDS011;30517;51.932;4.278;2024-01-11T04:50:27;7.40;;;4.55;;
37297;SDS011;30517;51.932;4.278;2024-01-11T04:53:08;9.95;;;5.13;;
37297;SDS011;30517;51.932;4.278;2024-01-11T04:55:49;7.57;;;3.92;;
37297;SDS011;30517;51.932;4.278;2024-01-11T04:58:29;8.07;;;4.38;;
37297;SDS011;30517;51.932;4.278;2024-01-11T05:01:13;7.78;;;4.25;;
37297;SDS011;30517;51.932;4.278;2024-01-11T05:03:55;8.20;;;4.20;;
37297;SDS011;30517;51.932;4.278;2024-01-11T05:06:36;6.03;;;3.90;;
37297;SDS011;30517;51.932;4.278;2024-01-11T05:09:17;8.77;;;4.50;;
37297;SDS011;30517;51.932;4.278;2024-01-11T05:11:58;7.53;;;4.30;;
37297;SDS011;30517;51.932;4.278;2024-01-11T05:14:39;7.15;;;3.67;;
37297;SDS011;30517;51.932;4.278;2024-01-11T05:17:19;9.70;;;5.00;;
37297;SDS011;30517;51.932;4.278;2024-01-11T05:20:00;9.15;;;4.80;;
37297;SDS011;30517;51.932;4.278;2024-01-11T05:22:42;6.95;;;3.85;;
37297;SDS011;30517;51.932;4.278;2024-01-11T05:25:22;9.90;;;5.18;;
37297;SDS011;30517;51.932;4.278;2024-01-11T05:28:04;18.33;;;8.52;;
37297;SDS011;30517;51.932;4.278;2024-01-11T05:30:45;16.20;;;9.05;;
37297;SDS011;30517;51.932;4.278;2024-01-11T05:33:26;17.48;;;8.77;;
37297;SDS011;30517;51.932;4.278;2024-01-11T05:36:07;15.55;;;8.02;;
37297;SDS011;30517;51.932;4.278;2024-01-11T05:38:48;16.73;;;8.70;;
37297;SDS011;30517;51.932;4.278;2024-01-11T05:41:29;15.38;;;8.40;;
37297;SDS011;30517;51.932;4.278;2024-01-11T05:44:10;16.27;;;7.63;;
37297;SDS011;30517;51.932;4.278;2024-01-11T05:46:51;14.30;;;7.65;;
37297;SDS011;30517;51.932;4.278;2024-01-11T05:49:32;17.15;;;8.85;;
37297;SDS011;30517;51.932;4.278;2024-01-11T05:52:13;16.67;;;8.48;;
37297;SDS011;30517;51.932;4.278;2024-01-11T05:54:54;12.27;;;6.63;;
37297;SDS011;30517;51.932;4.278;2024-01-11T05:57:35;16.25;;;8.15;;
37297;SDS011;30517;51.932;4.278;2024-01-11T06:00:16;18.02;;;8.27;;
37297;SDS011;30517;51.932;4.278;2024-01-11T06:02:57;13.90;;;8.98;;
37297;SDS011;30517;51.932;4.278;2024-01-11T06:05:41;13.38;;;8.25;;
37297;SDS011;30517;51.932;4.278;2024-01-11T06:08:22;14.68;;;8.02;;
37297;SDS011;30517;51.932;4.278;2024-01-11T06:11:03;13.20;;;8.25;;
37297;SDS011;30517;51.932;4.278;2024-01-11T06:13:44;10.70;;;7.20;;
37297;SDS011;30517;51.932;4.278;2024-01-11T06:16:25;13.50;;;7.25;;
37297;SDS011;30517;51.932;4.278;2024-01-11T06:19:05;13.48;;;7.57;;
37297;SDS011;30517;51.932;4.278;2024-01-11T06:21:47;10.80;;;6.28;;
37297;SDS011;30517;51.932;4.278;2024-01-11T06:24:28;13.13;;;7.80;;
37297;SDS011;30517;51.932;4.278;2024-01-11T06:27:09;16.33;;;8.35;;
37297;SDS011;30517;51.932;4.278;2024-01-11T06:29:50;13.88;;;7.78;;
37297;SDS011;30517;51.932;4.278;2024-01-11T06:32:31;13.55;;;7.93;;
37297;SDS011;30517;51.932;4.278;2024-01-11T06:35:12;12.82;;;6.85;;
37297;SDS011;30517;51.932;4.278;2024-01-11T06:37:53;14.07;;;7.18;;
37297;SDS011;30517;51.932;4.278;2024-01-11T06:40:34;13.70;;;8.20;;
37297;SDS011;30517;51.932;4.278;2024-01-11T06:43:15;10.57;;;6.25;;
37297;SDS011;30517;51.932;4.278;2024-01-11T06:45:56;13.98;;;7.88;;
37297;SDS011;30517;51.932;4.278;2024-01-11T06:48:36;13.98;;;6.75;;
37297;SDS011;30517;51.932;4.278;2024-01-11T06:51:22;13.82;;;7.47;;
37297;SDS011;30517;51.932;4.278;2024-01-11T06:54:03;11.52;;;7.28;;
37297;SDS011;30517;51.932;4.278;2024-01-11T06:56:47;13.18;;;7.57;;
37297;SDS011;30517;51.932;4.278;2024-01-11T06:59:28;10.23;;;6.65;;
37297;SDS011;30517;51.932;4.278;2024-01-11T07:02:09;17.42;;;8.95;;
37297;SDS011;30517;51.932;4.278;2024-01-11T07:04:50;13.02;;;6.90;;
37297;SDS011;30517;51.932;4.278;2024-01-11T07:07:31;11.43;;;7.35;;
37297;SDS011;30517;51.932;4.278;2024-01-11T07:10:12;14.40;;;8.32;;
37297;SDS011;30517;51.932;4.278;2024-01-11T07:12:53;17.30;;;8.52;;
37297;SDS011;30517;51.932;4.278;2024-01-11T07:15:34;13.10;;;6.90;;
37297;SDS011;30517;51.932;4.278;2024-01-11T07:18:15;11.27;;;7.18;;
37297;SDS011;30517;51.932;4.278;2024-01-11T07:20:56;9.77;;;6.35;;
37297;SDS011;30517;51.932;4.278;2024-01-11T07:23:38;13.40;;;8.15;;
37297;SDS011;30517;51.932;4.278;2024-01-11T07:26:19;11.20;;;6.95;;
37297;SDS011;30517;51.932;4.278;2024-01-11T07:28:59;13.15;;;7.25;;
37297;SDS011;30517;51.932;4.278;2024-01-11T07:31:41;11.65;;;7.35;;
37297;SDS011;30517;51.932;4.278;2024-01-11T07:34:22;11.80;;;7.05;;
37297;SDS011;30517;51.932;4.278;2024-01-11T07:37:04;18.70;;;9.77;;
37297;SDS011;30517;51.932;4.278;2024-01-11T07:39:45;16.38;;;8.73;;
37297;SDS011;30517;51.932;4.278;2024-01-11T07:42:26;12.43;;;7.82;;
37297;SDS011;30517;51.932;4.278;2024-01-11T07:45:07;15.43;;;8.52;;
37297;SDS011;30517;51.932;4.278;2024-01-11T07:50:30;14.32;;;8.02;;
37297;SDS011;30517;51.932;4.278;2024-01-11T07:53:11;16.48;;;8.05;;
37297;SDS011;30517;51.932;4.278;2024-01-11T07:55:52;15.07;;;8.27;;
37297;SDS011;30517;51.932;4.278;2024-01-11T07:58:33;17.75;;;10.07;;
37297;SDS011;30517;51.932;4.278;2024-01-11T08:01:17;15.13;;;9.38;;
37297;SDS011;30517;51.932;4.278;2024-01-11T08:03:58;18.08;;;9.90;;
37297;SDS011;30517;51.932;4.278;2024-01-11T08:09:22;10.88;;;6.85;;
37297;SDS011;30517;51.932;4.278;2024-01-11T08:12:03;13.23;;;7.85;;
37297;SDS011;30517;51.932;4.278;2024-01-11T08:14:44;16.15;;;8.68;;
37297;SDS011;30517;51.932;4.278;2024-01-11T08:17:26;14.00;;;7.30;;
37297;SDS011;30517;51.932;4.278;2024-01-11T08:20:07;13.30;;;8.40;;
37297;SDS011;30517;51.932;4.278;2024-01-11T08:22:48;19.23;;;8.63;;
37297;SDS011;30517;51.932;4.278;2024-01-11T08:25:29;14.45;;;8.00;;
37297;SDS011;30517;51.932;4.278;2024-01-11T08:28:10;14.05;;;8.35;;
37297;SDS011;30517;51.932;4.278;2024-01-11T08:30:51;14.13;;;9.25;;
37297;SDS011;30517;51.932;4.278;2024-01-11T08:33:32;15.13;;;7.60;;
37297;SDS011;30517;51.932;4.278;2024-01-11T08:36:13;14.63;;;8.57;;
37297;SDS011;30517;51.932;4.278;2024-01-11T08:38:54;14.68;;;9.43;;
37297;SDS011;30517;51.932;4.278;2024-01-11T08:41:35;20.13;;;9.43;;
37297;SDS011;30517;51.932;4.278;2024-01-11T08:44:17;12.27;;;7.80;;
37297;SDS011;30517;51.932;4.278;2024-01-11T08:46:58;14.15;;;8.50;;
37297;SDS011;30517;51.932;4.278;2024-01-11T08:49:39;17.52;;;9.23;;
37297;SDS011;30517;51.932;4.278;2024-01-11T08:52:20;14.45;;;8.18;;
37297;SDS011;30517;51.932;4.278;2024-01-11T08:55:02;17.75;;;10.30;;
37297;SDS011;30517;51.932;4.278;2024-01-11T08:57:44;17.70;;;10.02;;
37297;SDS011;30517;51.932;4.278;2024-01-11T09:00:26;13.73;;;8.07;;
37297;SDS011;30517;51.932;4.278;2024-01-11T09:03:07;14.53;;;8.07;;
37297;SDS011;30517;51.932;4.278;2024-01-11T09:05:48;15.23;;;8.55;;
37297;SDS011;30517;51.932;4.278;2024-01-11T09:08:29;17.13;;;9.02;;
37297;SDS011;30517;51.932;4.278;2024-01-11T09:11:10;14.95;;;8.45;;
37297;SDS011;30517;51.932;4.278;2024-01-11T09:13:51;16.42;;;9.80;;
37297;SDS011;30517;51.932;4.278;2024-01-11T09:16:32;14.15;;;8.40;;
37297;SDS011;30517;51.932;4.278;2024-01-11T09:19:13;15.68;;;9.45;;
37297;SDS011;30517;51.932;4.278;2024-01-11T09:21:54;17.00;;;9.27;;
37297;SDS011;30517;51.932;4.278;2024-01-11T09:24:35;17.23;;;9.38;;
37297;SDS011;30517;51.932;4.278;2024-01-11T09:27:16;15.65;;;9.88;;
37297;SDS011;30517;51.932;4.278;2024-01-11T09:29:57;16.05;;;9.52;;
37297;SDS011;30517;51.932;4.278;2024-01-11T09:32:38;14.38;;;9.32;;
37297;SDS011;30517;51.932;4.278;2024-01-11T09:35:19;16.35;;;10.07;;
37297;SDS011;30517;51.932;4.278;2024-01-11T09:38:00;16.52;;;9.07;;
37297;SDS011;30517;51.932;4.278;2024-01-11T09:40:41;17.38;;;9.70;;
37297;SDS011;30517;51.932;4.278;2024-01-11T09:43:22;19.63;;;10.70;;
37297;SDS011;30517;51.932;4.278;2024-01-11T09:46:03;19.83;;;11.82;;
37297;SDS011;30517;51.932;4.278;2024-01-11T09:48:46;18.83;;;9.77;;
37297;SDS011;30517;51.932;4.278;2024-01-11T09:51:28;15.30;;;9.80;;
37297;SDS011;30517;51.932;4.278;2024-01-11T09:54:10;17.45;;;9.57;;
37297;SDS011;30517;51.932;4.278;2024-01-11T09:56:51;16.65;;;9.75;;
37297;SDS011;30517;51.932;4.278;2024-01-11T09:59:35;18.10;;;10.15;;
37297;SDS011;30517;51.932;4.278;2024-01-11T10:02:16;18.10;;;11.40;;
37297;SDS011;30517;51.932;4.278;2024-01-11T10:04:58;15.18;;;9.98;;
37297;SDS011;30517;51.932;4.278;2024-01-11T10:07:38;18.08;;;10.55;;
37297;SDS011;30517;51.932;4.278;2024-01-11T10:10:20;18.48;;;10.85;;
37297;SDS011;30517;51.932;4.278;2024-01-11T10:13:02;19.23;;;10.25;;
37297;SDS011;30517;51.932;4.278;2024-01-11T10:15:43;17.85;;;10.27;;
37297;SDS011;30517;51.932;4.278;2024-01-11T10:18:24;17.98;;;11.38;;
37297;SDS011;30517;51.932;4.278;2024-01-11T10:21:05;16.77;;;10.73;;
37297;SDS011;30517;51.932;4.278;2024-01-11T10:23:46;16.65;;;9.90;;
37297;SDS011;30517;51.932;4.278;2024-01-11T10:26:27;16.35;;;9.93;;
37297;SDS011;30517;51.932;4.278;2024-01-11T10:29:10;15.18;;;9.48;;
37297;SDS011;30517;51.932;4.278;2024-01-11T10:31:53;17.50;;;10.90;;
37297;SDS011;30517;51.932;4.278;2024-01-11T10:34:33;15.50;;;8.55;;
37297;SDS011;30517;51.932;4.278;2024-01-11T10:37:15;17.42;;;9.52;;
37297;SDS011;30517;51.932;4.278;2024-01-11T10:39:56;21.00;;;10.98;;
37297;SDS011;30517;51.932;4.278;2024-01-11T10:45:22;18.08;;;10.65;;
37297;SDS011;30517;51.932;4.278;2024-01-11T10:48:14;20.02;;;11.10;;
37297;SDS011;30517;51.932;4.278;2024-01-11T10:50:58;17.27;;;9.88;;
37297;SDS011;30517;51.932;4.278;2024-01-11T10:53:46;17.60;;;10.30;;
37297;SDS011;30517;51.932;4.278;2024-01-11T10:56:27;15.23;;;9.35;;
37297;SDS011;30517;51.932;4.278;2024-01-11T10:59:10;17.20;;;9.82;;
37297;SDS011;30517;51.932;4.278;2024-01-11T11:01:52;20.88;;;9.70;;
37297;SDS011;30517;51.932;4.278;2024-01-11T11:04:36;17.00;;;9.45;;
37297;SDS011;30517;51.932;4.278;2024-01-11T11:07:18;17.73;;;10.53;;
37297;SDS011;30517;51.932;4.278;2024-01-11T11:09:59;15.48;;;9.25;;
37297;SDS011;30517;51.932;4.278;2024-01-11T11:12:48;15.40;;;9.25;;
37297;SDS011;30517;51.932;4.278;2024-01-11T11:15:29;16.00;;;9.27;;
37297;SDS011;30517;51.932;4.278;2024-01-11T11:18:12;16.15;;;9.18;;
37297;SDS011;30517;51.932;4.278;2024-01-11T11:20:53;16.30;;;9.93;;
37297;SDS011;30517;51.932;4.278;2024-01-11T11:23:35;16.80;;;9.30;;
37297;SDS011;30517;51.932;4.278;2024-01-11T11:26:16;14.55;;;9.30;;
37297;SDS011;30517;51.932;4.278;2024-01-11T11:28:57;15.38;;;9.25;;
37297;SDS011;30517;51.932;4.278;2024-01-11T11:31:42;15.48;;;8.50;;
37297;SDS011;30517;51.932;4.278;2024-01-11T11:34:41;15.55;;;9.13;;
37297;SDS011;30517;51.932;4.278;2024-01-11T11:37:24;16.60;;;9.60;;
37297;SDS011;30517;51.932;4.278;2024-01-11T11:40:06;17.52;;;9.80;;
37297;SDS011;30517;51.932;4.278;2024-01-11T11:42:48;14.50;;;9.27;;
37297;SDS011;30517;51.932;4.278;2024-01-11T11:45:29;14.35;;;9.00;;
37297;SDS011;30517;51.932;4.278;2024-01-11T11:48:54;15.65;;;9.23;;
37297;SDS011;30517;51.932;4.278;2024-01-11T11:51:16;14.63;;;8.50;;
37297;SDS011;30517;51.932;4.278;2024-01-11T11:53:58;12.53;;;8.57;;
37297;SDS011;30517;51.932;4.278;2024-01-11T11:56:39;16.15;;;8.93;;
37297;SDS011;30517;51.932;4.278;2024-01-11T11:59:21;14.87;;;9.13;;
37297;SDS011;30517;51.932;4.278;2024-01-11T12:04:47;14.23;;;8.45;;
37297;SDS011;30517;51.932;4.278;2024-01-11T12:07:28;15.05;;;8.15;;
37297;SDS011;30517;51.932;4.278;2024-01-11T12:10:09;14.63;;;8.60;;
37297;SDS011;30517;51.932;4.278;2024-01-11T12:12:50;14.25;;;8.68;;
37297;SDS011;30517;51.932;4.278;2024-01-11T12:15:31;16.30;;;8.68;;
37297;SDS011;30517;51.932;4.278;2024-01-11T12:18:13;14.30;;;8.60;;
37297;SDS011;30517;51.932;4.278;2024-01-11T12:20:54;13.70;;;8.13;;
37297;SDS011;30517;51.932;4.278;2024-01-11T12:23:36;13.20;;;8.82;;
37297;SDS011;30517;51.932;4.278;2024-01-11T12:26:19;13.90;;;8.57;;
37297;SDS011;30517;51.932;4.278;2024-01-11T12:29:02;14.80;;;8.35;;
37297;SDS011;30517;51.932;4.278;2024-01-11T12:31:42;14.40;;;8.45;;
37297;SDS011;30517;51.932;4.278;2024-01-11T12:34:24;15.18;;;8.13;;
37297;SDS011;30517;51.932;4.278;2024-01-11T12:37:06;12.15;;;7.57;;
37297;SDS011;30517;51.932;4.278;2024-01-11T12:39:47;15.38;;;8.57;;
37297;SDS011;30517;51.932;4.278;2024-01-11T12:42:34;13.55;;;8.18;;
37297;SDS011;30517;51.932;4.278;2024-01-11T12:45:16;14.60;;;8.48;;
37297;SDS011;30517;51.932;4.278;2024-01-11T12:47:57;15.90;;;8.60;;
37297;SDS011;30517;51.932;4.278;2024-01-11T12:50:39;13.33;;;7.80;;
37297;SDS011;30517;51.932;4.278;2024-01-11T12:53:21;12.55;;;7.20;;
37297;SDS011;30517;51.932;4.278;2024-01-11T12:56:03;15.20;;;7.72;;
37297;SDS011;30517;51.932;4.278;2024-01-11T12:58:50;12.30;;;7.93;;
37297;SDS011;30517;51.932;4.278;2024-01-11T13:01:31;12.90;;;7.80;;
37297;SDS011;30517;51.932;4.278;2024-01-11T13:04:12;12.13;;;7.07;;
37297;SDS011;30517;51.932;4.278;2024-01-11T13:06:53;10.95;;;6.95;;
37297;SDS011;30517;51.932;4.278;2024-01-11T13:09:34;13.52;;;7.60;;
37297;SDS011;30517;51.932;4.278;2024-01-11T13:12:15;19.02;;;8.32;;
37297;SDS011;30517;51.932;4.278;2024-01-11T13:14:56;12.13;;;7.55;;
37297;SDS011;30517;51.932;4.278;2024-01-11T13:17:37;14.93;;;7.57;;
37297;SDS011;30517;51.932;4.278;2024-01-11T13:20:18;14.23;;;9.00;;
37297;SDS011;30517;51.932;4.278;2024-01-11T13:25:56;16.33;;;8.60;;
37297;SDS011;30517;51.932;4.278;2024-01-11T13:28:37;15.90;;;8.43;;
37297;SDS011;30517;51.932;4.278;2024-01-11T13:31:18;15.05;;;7.80;;
37297;SDS011;30517;51.932;4.278;2024-01-11T13:34:00;12.63;;;6.97;;
37297;SDS011;30517;51.932;4.278;2024-01-11T13:36:41;11.07;;;7.03;;
37297;SDS011;30517;51.932;4.278;2024-01-11T13:39:21;14.70;;;7.70;;
37297;SDS011;30517;51.932;4.278;2024-01-11T13:42:04;11.25;;;7.03;;
37297;SDS011;30517;51.932;4.278;2024-01-11T13:44:49;13.68;;;7.63;;
37297;SDS011;30517;51.932;4.278;2024-01-11T13:47:31;14.65;;;8.82;;
37297;SDS011;30517;51.932;4.278;2024-01-11T13:50:12;14.18;;;7.85;;
37297;SDS011;30517;51.932;4.278;2024-01-11T13:52:53;12.02;;;7.35;;
37297;SDS011;30517;51.932;4.278;2024-01-11T13:55:34;11.85;;;7.20;;
37297;SDS011;30517;51.932;4.278;2024-01-11T13:58:17;11.63;;;7.90;;
37297;SDS011;30517;51.932;4.278;2024-01-11T14:00:59;11.18;;;6.35;;
37297;SDS011;30517;51.932;4.278;2024-01-11T14:03:39;12.07;;;6.68;;
37297;SDS011;30517;51.932;4.278;2024-01-11T14:06:20;12.88;;;7.72;;
37297;SDS011;30517;51.932;4.278;2024-01-11T14:09:01;12.10;;;6.55;;
37297;SDS011;30517;51.932;4.278;2024-01-11T14:11:44;11.90;;;7.00;;
37297;SDS011;30517;51.932;4.278;2024-01-11T14:14:28;13.93;;;6.10;;
37297;SDS011;30517;51.932;4.278;2024-01-11T14:17:09;12.52;;;6.82;;
37297;SDS011;30517;51.932;4.278;2024-01-11T14:19:50;13.45;;;7.57;;
37297;SDS011;30517;51.932;4.278;2024-01-11T14:22:31;11.02;;;6.35;;
37297;SDS011;30517;51.932;4.278;2024-01-11T14:25:20;10.85;;;6.97;;
37297;SDS011;30517;51.932;4.278;2024-01-11T14:28:02;10.57;;;6.28;;
37297;SDS011;30517;51.932;4.278;2024-01-11T14:30:44;10.23;;;5.88;;
37297;SDS011;30517;51.932;4.278;2024-01-11T14:33:25;9.75;;;6.93;;
37297;SDS011;30517;51.932;4.278;2024-01-11T14:36:05;11.15;;;6.35;;
37297;SDS011;30517;51.932;4.278;2024-01-11T14:38:47;12.13;;;6.40;;
37297;SDS011;30517;51.932;4.278;2024-01-11T14:41:28;11.32;;;6.05;;
37297;SDS011;30517;51.932;4.278;2024-01-11T14:44:08;12.70;;;7.47;;
37297;SDS011;30517;51.932;4.278;2024-01-11T14:46:50;10.30;;;6.50;;
37297;SDS011;30517;51.932;4.278;2024-01-11T14:49:31;10.85;;;7.13;;
37297;SDS011;30517;51.932;4.278;2024-01-11T14:52:13;11.73;;;6.95;;
37297;SDS011;30517;51.932;4.278;2024-01-11T14:54:54;10.55;;;6.90;;
37297;SDS011;30517;51.932;4.278;2024-01-11T14:57:36;12.23;;;7.05;;
37297;SDS011;30517;51.932;4.278;2024-01-11T15:00:17;12.35;;;6.68;;
37297;SDS011;30517;51.932;4.278;2024-01-11T15:02:58;10.82;;;7.40;;
37297;SDS011;30517;51.932;4.278;2024-01-11T15:05:39;11.48;;;6.72;;
37297;SDS011;30517;51.932;4.278;2024-01-11T15:08:20;11.98;;;7.72;;
37297;SDS011;30517;51.932;4.278;2024-01-11T15:11:01;12.70;;;6.75;;
37297;SDS011;30517;51.932;4.278;2024-01-11T15:13:43;14.30;;;6.90;;
37297;SDS011;30517;51.932;4.278;2024-01-11T15:16:24;11.65;;;6.82;;
37297;SDS011;30517;51.932;4.278;2024-01-11T15:19:06;13.00;;;6.90;;
37297;SDS011;30517;51.932;4.278;2024-01-11T15:21:47;16.40;;;6.68;;
37297;SDS011;30517;51.932;4.278;2024-01-11T15:24:28;11.07;;;6.25;;
37297;SDS011;30517;51.932;4.278;2024-01-11T15:27:09;13.50;;;7.43;;
37297;SDS011;30517;51.932;4.278;2024-01-11T15:29:50;11.38;;;6.40;;
37297;SDS011;30517;51.932;4.278;2024-01-11T15:32:31;11.35;;;6.25;;
37297;SDS011;30517;51.932;4.278;2024-01-11T15:35:12;11.25;;;6.43;;
37297;SDS011;30517;51.932;4.278;2024-01-11T15:37:53;11.63;;;6.10;;
37297;SDS011;30517;51.932;4.278;2024-01-11T15:40:34;10.93;;;6.22;;
37297;SDS011;30517;51.932;4.278;2024-01-11T15:43:15;12.50;;;7.68;;
37297;SDS011;30517;51.932;4.278;2024-01-11T15:45:56;14.30;;;8.63;;
37297;SDS011;30517;51.932;4.278;2024-01-11T15:48:37;12.77;;;8.50;;
37297;SDS011;30517;51.932;4.278;2024-01-11T15:51:18;13.48;;;8.52;;
37297;SDS011;30517;51.932;4.278;2024-01-11T15:53:59;11.23;;;6.97;;
37297;SDS011;30517;51.932;4.278;2024-01-11T15:56:40;15.25;;;8.68;;
37297;SDS011;30517;51.932;4.278;2024-01-11T15:59:21;12.98;;;7.30;;
37297;SDS011;30517;51.932;4.278;2024-01-11T16:02:01;13.60;;;7.93;;
37297;SDS011;30517;51.932;4.278;2024-01-11T16:04:42;12.57;;;8.00;;
37297;SDS011;30517;51.932;4.278;2024-01-11T16:07:25;13.85;;;8.02;;
37297;SDS011;30517;51.932;4.278;2024-01-11T16:10:06;15.48;;;7.97;;
37297;SDS011;30517;51.932;4.278;2024-01-11T16:12:47;13.25;;;7.20;;
37297;SDS011;30517;51.932;4.278;2024-01-11T16:15:28;12.77;;;8.02;;
37297;SDS011;30517;51.932;4.278;2024-01-11T16:18:09;15.40;;;8.85;;
37297;SDS011;30517;51.932;4.278;2024-01-11T16:20:50;14.15;;;8.50;;